Terminal Aerodrome Forecast
Issued by NWS Medford, OR

Home | Current Version | Previous Version | Text Only | Print | Product List | Glossary On
Versions: 1 2 3 4 5 6 7 8 9 10 11 12 13 14 15 16 17 18 19 20 21 22 23 24 25
000
FTUS46 KMFR 260535
TAFMFR
TAF
KMFR 260535Z 2606/2706 VRB05KT P6SM FEW060 SCT200
     FM260900 VRB02KT P6SM FEW120 SCT150
     FM261200 00000KT 5SM BR BCFG FEW002 SCT009 SCT120
     FM261700 23003KT P6SM VCSH FEW035 SCT120
     FM262100 28008KT P6SM -SHRASN SCT015 BKN025 OVC035
     FM270300 20005KT P6SM -SHSN BKN015 OVC030=

USA.gov is the U.S. government's official web portal to all federal, state and local government web resources and services.